sensor_id;sensor_type;location;lat;lon;timestamp;pressure;altitude;pressure_sealevel;temperature;humidity
74659;BME280;63186;51.204;6.536;2022-10-20T00:00:22;101363.75;;;10.67;86.84
74659;BME280;63186;51.204;6.536;2022-10-20T00:02:48;101367.09;;;10.64;86.88
74659;BME280;63186;51.204;6.536;2022-10-20T00:05:13;101359.47;;;10.56;87.21
74659;BME280;63186;51.204;6.536;2022-10-20T00:07:38;101359.03;;;10.49;87.91
74659;BME280;63186;51.204;6.536;2022-10-20T00:10:04;101356.53;;;10.52;87.51
74659;BME280;63186;51.204;6.536;2022-10-20T00:12:29;101356.00;;;10.50;87.41
74659;BME280;63186;51.204;6.536;2022-10-20T00:14:54;101345.28;;;10.49;87.50
74659;BME280;63186;51.204;6.536;2022-10-20T00:17:20;101338.69;;;10.50;87.33
74659;BME280;63186;51.204;6.536;2022-10-20T00:19:48;101327.13;;;10.48;87.45
74659;BME280;63186;51.204;6.536;2022-10-20T00:22:13;101327.44;;;10.46;88.21
74659;BME280;63186;51.204;6.536;2022-10-20T00:24:39;101328.31;;;10.60;87.32
74659;BME280;63186;51.204;6.536;2022-10-20T00:27:04;101342.47;;;10.73;87.48
74659;BME280;63186;51.204;6.536;2022-10-20T00:29:30;101332.19;;;10.78;86.98
74659;BME280;63186;51.204;6.536;2022-10-20T00:31:55;101330.41;;;10.87;86.94
74659;BME280;63186;51.204;6.536;2022-10-20T00:34:20;101324.88;;;10.87;87.19
74659;BME280;63186;51.204;6.536;2022-10-20T00:36:46;101321.69;;;10.80;87.21
74659;BME280;63186;51.204;6.536;2022-10-20T00:39:11;101317.63;;;10.78;87.60
74659;BME280;63186;51.204;6.536;2022-10-20T00:41:36;101322.44;;;10.86;87.17
74659;BME280;63186;51.204;6.536;2022-10-20T00:47:09;101292.59;;;10.74;87.13
74659;BME280;63186;51.204;6.536;2022-10-20T00:49:36;101301.28;;;10.63;87.19
74659;BME280;63186;51.204;6.536;2022-10-20T00:52:01;101297.34;;;10.69;87.12
74659;BME280;63186;51.204;6.536;2022-10-20T00:54:27;101291.63;;;10.65;86.91
74659;BME280;63186;51.204;6.536;2022-10-20T00:56:54;101299.03;;;10.70;86.66
74659;BME280;63186;51.204;6.536;2022-10-20T00:59:24;101293.50;;;10.70;86.53
74659;BME280;63186;51.204;6.536;2022-10-20T01:01:50;101287.16;;;10.69;86.29
74659;BME280;63186;51.204;6.536;2022-10-20T01:04:16;101279.38;;;10.57;87.32
74659;BME280;63186;51.204;6.536;2022-10-20T01:06:42;101281.75;;;10.64;86.73
74659;BME280;63186;51.204;6.536;2022-10-20T01:09:07;101283.50;;;10.74;86.05
74659;BME280;63186;51.204;6.536;2022-10-20T01:22:29;101268.44;;;10.52;86.28
74659;BME280;63186;51.204;6.536;2022-10-20T01:25:52;101281.31;;;10.57;86.09
74659;BME280;63186;51.204;6.536;2022-10-20T01:27:57;101253.53;;;10.53;85.75
74659;BME280;63186;51.204;6.536;2022-10-20T01:30:25;101262.94;;;10.52;85.54
74659;BME280;63186;51.204;6.536;2022-10-20T01:35:59;101261.22;;;10.38;86.25
74659;BME280;63186;51.204;6.536;2022-10-20T01:38:36;101256.53;;;10.38;86.22
74659;BME280;63186;51.204;6.536;2022-10-20T01:41:21;101254.97;;;10.32;86.23
74659;BME280;63186;51.204;6.536;2022-10-20T01:43:51;101238.97;;;10.34;85.88
74659;BME280;63186;51.204;6.536;2022-10-20T01:46:20;101243.72;;;10.28;86.30
74659;BME280;63186;51.204;6.536;2022-10-20T01:48:48;101233.25;;;10.30;86.05
74659;BME280;63186;51.204;6.536;2022-10-20T01:51:14;101221.66;;;10.33;86.07
74659;BME280;63186;51.204;6.536;2022-10-20T01:53:39;101218.06;;;10.33;85.91
74659;BME280;63186;51.204;6.536;2022-10-20T01:56:05;101216.44;;;10.32;85.81
74659;BME280;63186;51.204;6.536;2022-10-20T02:01:22;101211.69;;;10.38;85.58
74659;BME280;63186;51.204;6.536;2022-10-20T02:03:55;101195.75;;;10.35;85.72
74659;BME280;63186;51.204;6.536;2022-10-20T02:08:58;101204.53;;;10.37;85.90
74659;BME280;63186;51.204;6.536;2022-10-20T02:14:04;101199.56;;;10.39;85.76
74659;BME280;63186;51.204;6.536;2022-10-20T02:16:35;101188.25;;;10.40;85.52
74659;BME280;63186;51.204;6.536;2022-10-20T02:19:03;101181.03;;;10.44;85.31
74659;BME280;63186;51.204;6.536;2022-10-20T02:21:30;101178.03;;;10.41;85.44
74659;BME280;63186;51.204;6.536;2022-10-20T02:23:58;101181.31;;;10.43;85.18
74659;BME280;63186;51.204;6.536;2022-10-20T02:26:28;101177.53;;;10.39;85.86
74659;BME280;63186;51.204;6.536;2022-10-20T02:28:59;101180.28;;;10.39;85.50
74659;BME280;63186;51.204;6.536;2022-10-20T02:31:25;101179.75;;;10.37;85.53
74659;BME280;63186;51.204;6.536;2022-10-20T02:33:52;101173.97;;;10.38;85.35
74659;BME280;63186;51.204;6.536;2022-10-20T02:36:20;101158.03;;;10.35;85.29
74659;BME280;63186;51.204;6.536;2022-10-20T02:38:48;101164.97;;;10.32;85.36
74659;BME280;63186;51.204;6.536;2022-10-20T02:41:14;101160.59;;;10.31;85.21
74659;BME280;63186;51.204;6.536;2022-10-20T02:43:39;101139.97;;;10.29;85.25
74659;BME280;63186;51.204;6.536;2022-10-20T02:46:04;101156.09;;;10.36;85.13
74659;BME280;63186;51.204;6.536;2022-10-20T02:48:30;101146.84;;;10.31;84.82
74659;BME280;63186;51.204;6.536;2022-10-20T02:50:56;101142.44;;;10.30;84.79
74659;BME280;63186;51.204;6.536;2022-10-20T02:53:21;101149.19;;;10.38;84.70
74659;BME280;63186;51.204;6.536;2022-10-20T02:55:46;101153.66;;;10.34;84.73
74659;BME280;63186;51.204;6.536;2022-10-20T02:58:12;101146.22;;;10.35;84.80
74659;BME280;63186;51.204;6.536;2022-10-20T03:00:37;101145.19;;;10.30;85.11
74659;BME280;63186;51.204;6.536;2022-10-20T03:03:02;101144.34;;;10.30;85.04
74659;BME280;63186;51.204;6.536;2022-10-20T03:05:28;101156.22;;;10.30;84.85
74659;BME280;63186;51.204;6.536;2022-10-20T03:07:53;101145.47;;;10.29;85.09
74659;BME280;63186;51.204;6.536;2022-10-20T03:10:18;101143.66;;;10.24;85.08
74659;BME280;63186;51.204;6.536;2022-10-20T03:12:44;101143.38;;;10.21;85.45
74659;BME280;63186;51.204;6.536;2022-10-20T03:15:10;101133.25;;;10.16;85.14
74659;BME280;63186;51.204;6.536;2022-10-20T03:17:35;101129.63;;;10.21;85.07
74659;BME280;63186;51.204;6.536;2022-10-20T03:20:00;101126.66;;;10.17;85.33
74659;BME280;63186;51.204;6.536;2022-10-20T03:22:26;101137.31;;;10.24;85.20
74659;BME280;63186;51.204;6.536;2022-10-20T03:24:52;101122.78;;;10.18;85.21
74659;BME280;63186;51.204;6.536;2022-10-20T03:27:17;101126.38;;;10.19;85.23
74659;BME280;63186;51.204;6.536;2022-10-20T03:29:42;101110.38;;;10.21;85.14
74659;BME280;63186;51.204;6.536;2022-10-20T03:32:07;101104.81;;;10.26;84.96
74659;BME280;63186;51.204;6.536;2022-10-20T03:34:33;101110.06;;;10.22;85.19
74659;BME280;63186;51.204;6.536;2022-10-20T03:36:58;101115.06;;;10.20;85.22
74659;BME280;63186;51.204;6.536;2022-10-20T03:39:23;101118.88;;;10.24;84.75
74659;BME280;63186;51.204;6.536;2022-10-20T03:41:48;101106.94;;;10.29;84.45
74659;BME280;63186;51.204;6.536;2022-10-20T03:44:14;101095.94;;;10.29;84.76
74659;BME280;63186;51.204;6.536;2022-10-20T03:46:39;101094.00;;;10.29;84.44
74659;BME280;63186;51.204;6.536;2022-10-20T03:49:04;101100.94;;;10.27;84.72
74659;BME280;63186;51.204;6.536;2022-10-20T03:51:30;101088.63;;;10.24;84.52
74659;BME280;63186;51.204;6.536;2022-10-20T03:53:55;101089.31;;;10.30;84.51
74659;BME280;63186;51.204;6.536;2022-10-20T03:56:21;101087.41;;;10.30;84.26
74659;BME280;63186;51.204;6.536;2022-10-20T03:58:46;101067.69;;;10.23;84.77
74659;BME280;63186;51.204;6.536;2022-10-20T04:01:17;101072.00;;;10.29;83.78
74659;BME280;63186;51.204;6.536;2022-10-20T04:03:44;101070.69;;;10.27;83.75
74659;BME280;63186;51.204;6.536;2022-10-20T04:06:11;101091.25;;;10.29;84.05
74659;BME280;63186;51.204;6.536;2022-10-20T04:08:36;101094.13;;;10.24;84.14
74659;BME280;63186;51.204;6.536;2022-10-20T04:11:01;101098.53;;;10.20;84.00
74659;BME280;63186;51.204;6.536;2022-10-20T04:13:27;101086.41;;;10.21;84.22
74659;BME280;63186;51.204;6.536;2022-10-20T04:15:52;101087.31;;;10.17;84.67
74659;BME280;63186;51.204;6.536;2022-10-20T04:18:17;101072.63;;;10.07;84.70
74659;BME280;63186;51.204;6.536;2022-10-20T04:20:42;101097.22;;;10.18;84.52
74659;BME280;63186;51.204;6.536;2022-10-20T04:23:08;101085.69;;;10.16;84.62
74659;BME280;63186;51.204;6.536;2022-10-20T04:25:33;101063.97;;;10.14;84.35
74659;BME280;63186;51.204;6.536;2022-10-20T04:27:58;101047.97;;;10.16;84.21
74659;BME280;63186;51.204;6.536;2022-10-20T04:30:24;101045.22;;;10.16;84.04
74659;BME280;63186;51.204;6.536;2022-10-20T04:32:50;101034.53;;;10.15;84.21
74659;BME280;63186;51.204;6.536;2022-10-20T04:35:15;101039.13;;;10.19;84.18
74659;BME280;63186;51.204;6.536;2022-10-20T04:37:40;101035.25;;;10.20;83.99
74659;BME280;63186;51.204;6.536;2022-10-20T04:40:06;101031.03;;;10.28;83.58
74659;BME280;63186;51.204;6.536;2022-10-20T04:42:31;101031.13;;;10.23;83.85
74659;BME280;63186;51.204;6.536;2022-10-20T04:44:57;101028.72;;;10.16;83.95
74659;BME280;63186;51.204;6.536;2022-10-20T04:47:22;101019.56;;;10.21;83.82
74659;BME280;63186;51.204;6.536;2022-10-20T04:49:47;101014.22;;;10.29;83.37
74659;BME280;63186;51.204;6.536;2022-10-20T04:52:12;101015.66;;;10.27;83.54
74659;BME280;63186;51.204;6.536;2022-10-20T04:54:38;101004.31;;;10.28;83.59
74659;BME280;63186;51.204;6.536;2022-10-20T04:57:03;100989.44;;;10.29;83.26
74659;BME280;63186;51.204;6.536;2022-10-20T04:59:30;101001.06;;;10.26;83.42
74659;BME280;63186;51.204;6.536;2022-10-20T05:01:55;101001.94;;;10.22;83.63
74659;BME280;63186;51.204;6.536;2022-10-20T05:04:20;100990.66;;;10.23;83.57
74659;BME280;63186;51.204;6.536;2022-10-20T05:06:47;100987.63;;;10.25;83.48
74659;BME280;63186;51.204;6.536;2022-10-20T05:09:12;100983.81;;;10.21;83.48
74659;BME280;63186;51.204;6.536;2022-10-20T05:11:38;100987.91;;;10.23;83.59
74659;BME280;63186;51.204;6.536;2022-10-20T05:14:03;100977.75;;;10.24;83.36
74659;BME280;63186;51.204;6.536;2022-10-20T05:16:29;100978.44;;;10.29;83.38
74659;BME280;63186;51.204;6.536;2022-10-20T05:18:54;100963.13;;;10.23;83.34
74659;BME280;63186;51.204;6.536;2022-10-20T05:21:26;100968.06;;;10.26;82.80
74659;BME280;63186;51.204;6.536;2022-10-20T05:23:56;100976.91;;;10.23;83.38
74659;BME280;63186;51.204;6.536;2022-10-20T05:26:22;100969.25;;;10.20;83.55
74659;BME280;63186;51.204;6.536;2022-10-20T05:28:48;100958.22;;;10.20;83.37
74659;BME280;63186;51.204;6.536;2022-10-20T05:31:16;100932.88;;;10.23;82.76
74659;BME280;63186;51.204;6.536;2022-10-20T05:33:45;100943.47;;;10.30;82.92
74659;BME280;63186;51.204;6.536;2022-10-20T05:36:13;100966.44;;;10.25;83.21
74659;BME280;63186;51.204;6.536;2022-10-20T05:38:39;100937.94;;;10.16;83.25
74659;BME280;63186;51.204;6.536;2022-10-20T05:41:12;100939.72;;;10.26;82.86
74659;BME280;63186;51.204;6.536;2022-10-20T05:43:38;100932.97;;;10.18;82.91
74659;BME280;63186;51.204;6.536;2022-10-20T05:46:04;100954.06;;;10.23;83.08
74659;BME280;63186;51.204;6.536;2022-10-20T05:48:30;100945.91;;;10.18;83.43
74659;BME280;63186;51.204;6.536;2022-10-20T05:53:33;100942.78;;;10.24;83.05
74659;BME280;63186;51.204;6.536;2022-10-20T05:56:18;100944.47;;;10.20;83.03
74659;BME280;63186;51.204;6.536;2022-10-20T05:58:45;100943.75;;;10.15;83.19
74659;BME280;63186;51.204;6.536;2022-10-20T06:01:14;100938.47;;;10.18;83.32
74659;BME280;63186;51.204;6.536;2022-10-20T06:03:48;100943.97;;;10.18;83.32
74659;BME280;63186;51.204;6.536;2022-10-20T06:06:14;100937.94;;;10.16;83.57
74659;BME280;63186;51.204;6.536;2022-10-20T06:08:40;100932.16;;;10.18;83.32
74659;BME280;63186;51.204;6.536;2022-10-20T06:11:07;100920.94;;;10.14;83.42
74659;BME280;63186;51.204;6.536;2022-10-20T06:13:33;100925.72;;;10.22;83.11
74659;BME280;63186;51.204;6.536;2022-10-20T06:16:14;100932.69;;;10.33;82.86
74659;BME280;63186;51.204;6.536;2022-10-20T06:18:39;100931.66;;;10.29;82.88
74659;BME280;63186;51.204;6.536;2022-10-20T06:21:13;100937.69;;;10.31;83.05
74659;BME280;63186;51.204;6.536;2022-10-20T06:23:38;100944.75;;;10.38;82.70
74659;BME280;63186;51.204;6.536;2022-10-20T06:26:06;100936.47;;;10.38;82.74
74659;BME280;63186;51.204;6.536;2022-10-20T06:28:33;100944.84;;;10.46;82.85
74659;BME280;63186;51.204;6.536;2022-10-20T06:30:59;100952.19;;;10.51;82.50
74659;BME280;63186;51.204;6.536;2022-10-20T06:33:25;100956.75;;;10.55;81.87
74659;BME280;63186;51.204;6.536;2022-10-20T06:35:57;100949.31;;;10.56;81.84
74659;BME280;63186;51.204;6.536;2022-10-20T06:38:23;100950.16;;;10.56;82.06
74659;BME280;63186;51.204;6.536;2022-10-20T06:40:48;100948.09;;;10.62;81.64
74659;BME280;63186;51.204;6.536;2022-10-20T06:43:13;100941.16;;;10.65;81.48
74659;BME280;63186;51.204;6.536;2022-10-20T06:45:39;100944.41;;;10.67;81.69
74659;BME280;63186;51.204;6.536;2022-10-20T06:48:04;100923.50;;;10.66;81.32
74659;BME280;63186;51.204;6.536;2022-10-20T06:50:32;100949.31;;;10.70;81.34
74659;BME280;63186;51.204;6.536;2022-10-20T06:52:57;100948.47;;;10.69;81.54
74659;BME280;63186;51.204;6.536;2022-10-20T06:55:23;100957.28;;;10.71;81.25
74659;BME280;63186;51.204;6.536;2022-10-20T06:57:48;100966.34;;;10.72;81.37
74659;BME280;63186;51.204;6.536;2022-10-20T07:00:13;100959.41;;;10.74;81.38
74659;BME280;63186;51.204;6.536;2022-10-20T07:02:38;100960.75;;;10.77;81.40
74659;BME280;63186;51.204;6.536;2022-10-20T07:05:04;100963.38;;;10.82;81.48
74659;BME280;63186;51.204;6.536;2022-10-20T07:07:30;100956.84;;;10.78;81.42
74659;BME280;63186;51.204;6.536;2022-10-20T07:09:55;100960.31;;;10.83;81.26
74659;BME280;63186;51.204;6.536;2022-10-20T07:12:20;100972.25;;;10.93;80.87
74659;BME280;63186;51.204;6.536;2022-10-20T07:14:47;100975.00;;;10.93;80.92
74659;BME280;63186;51.204;6.536;2022-10-20T07:17:12;100976.13;;;10.92;80.97
74659;BME280;63186;51.204;6.536;2022-10-20T07:19:37;100987.84;;;10.97;80.97
74659;BME280;63186;51.204;6.536;2022-10-20T07:22:03;100982.34;;;10.97;80.73
74659;BME280;63186;51.204;6.536;2022-10-20T07:24:28;100976.81;;;10.97;80.98
74659;BME280;63186;51.204;6.536;2022-10-20T07:26:53;100969.38;;;10.98;81.40
74659;BME280;63186;51.204;6.536;2022-10-20T07:29:19;100959.66;;;11.00;80.99
74659;BME280;63186;51.204;6.536;2022-10-20T07:31:46;100951.09;;;11.02;80.90
74659;BME280;63186;51.204;6.536;2022-10-20T07:34:13;100952.63;;;11.08;80.55
74659;BME280;63186;51.204;6.536;2022-10-20T07:36:40;100943.75;;;11.11;80.90
74659;BME280;63186;51.204;6.536;2022-10-20T07:39:06;100957.19;;;11.12;80.39
74659;BME280;63186;51.204;6.536;2022-10-20T07:41:33;100972.81;;;11.17;80.51
74659;BME280;63186;51.204;6.536;2022-10-20T07:43:58;100963.91;;;11.20;80.81
74659;BME280;63186;51.204;6.536;2022-10-20T07:46:24;100950.34;;;11.24;80.61
74659;BME280;63186;51.204;6.536;2022-10-20T07:48:49;100941.75;;;11.25;80.25
74659;BME280;63186;51.204;6.536;2022-10-20T07:53:49;100954.19;;;11.36;80.00
74659;BME280;63186;51.204;6.536;2022-10-20T07:56:15;100956.00;;;11.41;79.96
74659;BME280;63186;51.204;6.536;2022-10-20T07:58:41;100973.03;;;11.43;79.74
74659;BME280;63186;51.204;6.536;2022-10-20T08:01:06;100976.34;;;11.54;80.21
74659;BME280;63186;51.204;6.536;2022-10-20T08:03:32;100975.63;;;11.62;79.67
74659;BME280;63186;51.204;6.536;2022-10-20T08:05:58;100974.06;;;11.69;79.30
74659;BME280;63186;51.204;6.536;2022-10-20T08:08:23;100956.44;;;11.79;78.91
74659;BME280;63186;51.204;6.536;2022-10-20T08:10:49;100955.03;;;11.82;78.63
74659;BME280;63186;51.204;6.536;2022-10-20T08:13:14;100969.69;;;11.91;78.96
74659;BME280;63186;51.204;6.536;2022-10-20T08:15:39;100960.16;;;11.97;78.36
74659;BME280;63186;51.204;6.536;2022-10-20T08:18:05;100963.94;;;12.01;78.33
74659;BME280;63186;51.204;6.536;2022-10-20T08:20:30;100962.16;;;12.05;78.16
74659;BME280;63186;51.204;6.536;2022-10-20T08:22:56;100966.84;;;12.05;78.05
74659;BME280;63186;51.204;6.536;2022-10-20T08:25:21;100956.78;;;12.00;78.43
74659;BME280;63186;51.204;6.536;2022-10-20T08:27:47;100960.19;;;12.06;78.72
74659;BME280;63186;51.204;6.536;2022-10-20T08:30:12;100957.78;;;12.04;78.61
74659;BME280;63186;51.204;6.536;2022-10-20T08:32:37;100943.28;;;11.99;78.96
74659;BME280;63186;51.204;6.536;2022-10-20T08:35:03;100944.97;;;12.08;78.72
74659;BME280;63186;51.204;6.536;2022-10-20T08:37:30;100945.66;;;12.14;78.41
74659;BME280;63186;51.204;6.536;2022-10-20T08:39:55;100933.81;;;12.13;78.67
74659;BME280;63186;51.204;6.536;2022-10-20T08:42:21;100928.94;;;12.19;78.81
74659;BME280;63186;51.204;6.536;2022-10-20T08:44:47;100946.50;;;12.23;78.33
74659;BME280;63186;51.204;6.536;2022-10-20T08:47:25;100942.81;;;12.28;78.63
74659;BME280;63186;51.204;6.536;2022-10-20T08:49:51;100939.38;;;12.31;78.91
74659;BME280;63186;51.204;6.536;2022-10-20T08:52:17;100926.88;;;12.25;78.56
74659;BME280;63186;51.204;6.536;2022-10-20T08:54:44;100942.00;;;12.27;78.59
74659;BME280;63186;51.204;6.536;2022-10-20T08:57:25;100953.25;;;12.39;78.39
74659;BME280;63186;51.204;6.536;2022-10-20T08:59:53;100965.13;;;12.48;78.26
74659;BME280;63186;51.204;6.536;2022-10-20T09:02:20;100950.06;;;12.55;78.23
74659;BME280;63186;51.204;6.536;2022-10-20T09:04:52;100948.91;;;12.56;78.20
74659;BME280;63186;51.204;6.536;2022-10-20T09:07:31;100953.50;;;12.60;77.95
74659;BME280;63186;51.204;6.536;2022-10-20T09:10:37;100931.06;;;12.62;77.83
74659;BME280;63186;51.204;6.536;2022-10-20T09:13:12;100923.25;;;12.64;78.39
74659;BME280;63186;51.204;6.536;2022-10-20T09:15:39;100923.78;;;12.74;77.71
74659;BME280;63186;51.204;6.536;2022-10-20T09:18:06;100937.31;;;12.93;76.83
74659;BME280;63186;51.204;6.536;2022-10-20T09:20:56;100931.66;;;13.07;76.06
74659;BME280;63186;51.204;6.536;2022-10-20T09:23:33;100921.28;;;13.30;75.27
74659;BME280;63186;51.204;6.536;2022-10-20T09:25:58;100910.19;;;13.56;74.65
74659;BME280;63186;51.204;6.536;2022-10-20T09:28:26;100911.81;;;13.74;73.27
74659;BME280;63186;51.204;6.536;2022-10-20T09:30:55;100905.50;;;13.48;73.97
74659;BME280;63186;51.204;6.536;2022-10-20T09:33:29;100908.72;;;13.15;74.94
74659;BME280;63186;51.204;6.536;2022-10-20T09:36:04;100903.03;;;12.94;76.33
74659;BME280;63186;51.204;6.536;2022-10-20T09:38:40;100908.69;;;12.89;76.45
74659;BME280;63186;51.204;6.536;2022-10-20T09:41:10;100910.66;;;12.89;77.19
74659;BME280;63186;51.204;6.536;2022-10-20T09:43:49;100912.09;;;12.77;77.01
74659;BME280;63186;51.204;6.536;2022-10-20T09:46:20;100912.25;;;12.72;76.89
74659;BME280;63186;51.204;6.536;2022-10-20T09:48:47;100908.03;;;12.66;76.74
74659;BME280;63186;51.204;6.536;2022-10-20T09:51:20;100911.41;;;12.63;77.44
74659;BME280;63186;51.204;6.536;2022-10-20T09:53:53;100930.41;;;12.56;78.23
74659;BME280;63186;51.204;6.536;2022-10-20T09:56:39;100949.59;;;12.61;78.43
74659;BME280;63186;51.204;6.536;2022-10-20T09:59:11;100960.78;;;12.56;79.20
74659;BME280;63186;51.204;6.536;2022-10-20T10:02:00;100959.97;;;12.56;79.24
74659;BME280;63186;51.204;6.536;2022-10-20T10:06:57;100960.28;;;12.54;79.39
74659;BME280;63186;51.204;6.536;2022-10-20T10:09:29;100937.72;;;12.52;79.48
74659;BME280;63186;51.204;6.536;2022-10-20T10:12:05;100932.22;;;12.61;79.05
74659;BME280;63186;51.204;6.536;2022-10-20T10:14:57;100930.13;;;12.75;78.90
74659;BME280;63186;51.204;6.536;2022-10-20T10:17:36;100953.72;;;12.90;77.90
74659;BME280;63186;51.204;6.536;2022-10-20T10:20:31;100954.41;;;13.04;77.60
74659;BME280;63186;51.204;6.536;2022-10-20T10:23:35;100950.19;;;13.07;77.23
74659;BME280;63186;51.204;6.536;2022-10-20T10:29:04;100946.63;;;13.15;77.54
74659;BME280;63186;51.204;6.536;2022-10-20T10:31:47;100949.03;;;13.16;78.09
74659;BME280;63186;51.204;6.536;2022-10-20T10:36:39;100947.41;;;13.07;79.05
74659;BME280;63186;51.204;6.536;2022-10-20T10:39:09;100951.47;;;12.92;80.12
74659;BME280;63186;51.204;6.536;2022-10-20T10:41:49;100956.19;;;12.91;79.51
74659;BME280;63186;51.204;6.536;2022-10-20T10:46:57;100931.13;;;12.79;80.94
74659;BME280;63186;51.204;6.536;2022-10-20T10:52:05;100923.59;;;12.62;81.77
74659;BME280;63186;51.204;6.536;2022-10-20T10:54:44;100901.50;;;12.54;82.37
74659;BME280;63186;51.204;6.536;2022-10-20T10:59:51;100900.16;;;12.42;83.27
74659;BME280;63186;51.204;6.536;2022-10-20T11:02:28;100902.06;;;12.33;84.44
74659;BME280;63186;51.204;6.536;2022-10-20T11:07:44;100897.78;;;12.18;86.45
74659;BME280;63186;51.204;6.536;2022-10-20T11:10:40;100902.78;;;12.08;87.10
74659;BME280;63186;51.204;6.536;2022-10-20T11:13:19;100895.91;;;11.97;87.68
74659;BME280;63186;51.204;6.536;2022-10-20T11:21:44;100913.34;;;11.83;89.48
74659;BME280;63186;51.204;6.536;2022-10-20T11:24:40;100920.59;;;11.79;90.19
74659;BME280;63186;51.204;6.536;2022-10-20T11:27:29;100925.72;;;11.72;90.08
74659;BME280;63186;51.204;6.536;2022-10-20T11:30:00;100914.53;;;11.68;90.32
74659;BME280;63186;51.204;6.536;2022-10-20T11:32:37;100916.66;;;11.72;90.64
74659;BME280;63186;51.204;6.536;2022-10-20T11:35:56;100925.25;;;11.70;91.70
74659;BME280;63186;51.204;6.536;2022-10-20T11:41:03;100912.06;;;11.67;91.82
74659;BME280;63186;51.204;6.536;2022-10-20T11:43:40;100917.59;;;11.67;91.98
74659;BME280;63186;51.204;6.536;2022-10-20T11:46:17;100915.03;;;11.71;92.24
74659;BME280;63186;51.204;6.536;2022-10-20T11:48:49;100919.72;;;11.70;92.14
74659;BME280;63186;51.204;6.536;2022-10-20T12:10:27;100880.28;;;11.92;93.16
74659;BME280;63186;51.204;6.536;2022-10-20T12:13:04;100845.88;;;11.89;92.68
74659;BME280;63186;51.204;6.536;2022-10-20T12:15:33;100842.94;;;11.86;92.70
74659;BME280;63186;51.204;6.536;2022-10-20T12:18:06;100854.66;;;11.91;93.62
74659;BME280;63186;51.204;6.536;2022-10-20T12:20:50;100857.91;;;11.93;93.51
74659;BME280;63186;51.204;6.536;2022-10-20T12:28:53;100838.06;;;12.22;92.81
74659;BME280;63186;51.204;6.536;2022-10-20T12:31:18;100844.72;;;12.30;92.56
74659;BME280;63186;51.204;6.536;2022-10-20T12:38:46;100830.84;;;12.53;91.97
74659;BME280;63186;51.204;6.536;2022-10-20T12:41:31;100838.94;;;12.58;92.59
74659;BME280;63186;51.204;6.536;2022-10-20T12:44:03;100842.22;;;12.60;92.80
74659;BME280;63186;51.204;6.536;2022-10-20T12:46:30;100841.88;;;12.61;92.45
74659;BME280;63186;51.204;6.536;2022-10-20T12:49:01;100838.63;;;12.59;92.37
74659;BME280;63186;51.204;6.536;2022-10-20T12:51:34;100842.84;;;12.57;92.74
74659;BME280;63186;51.204;6.536;2022-10-20T12:54:06;100839.28;;;12.56;92.62
74659;BME280;63186;51.204;6.536;2022-10-20T12:56:36;100821.25;;;12.59;92.15
74659;BME280;63186;51.204;6.536;2022-10-20T12:59:17;100815.75;;;12.59;92.05
74659;BME280;63186;51.204;6.536;2022-10-20T13:04:57;100831.81;;;12.74;92.37
74659;BME280;63186;51.204;6.536;2022-10-20T13:15:30;100803.72;;;12.89;91.60
74659;BME280;63186;51.204;6.536;2022-10-20T13:18:00;100799.31;;;12.88;91.37
74659;BME280;63186;51.204;6.536;2022-10-20T13:20:44;100814.28;;;12.96;91.34
74659;BME280;63186;51.204;6.536;2022-10-20T13:23:15;100806.97;;;13.00;90.96
74659;BME280;63186;51.204;6.536;2022-10-20T13:25:48;100810.72;;;13.04;90.75
74659;BME280;63186;51.204;6.536;2022-10-20T13:28:49;100817.84;;;13.14;90.59
74659;BME280;63186;51.204;6.536;2022-10-20T13:31:15;100807.09;;;13.29;90.21
74659;BME280;63186;51.204;6.536;2022-10-20T13:34:03;100815.25;;;13.35;89.18
74659;BME280;63186;51.204;6.536;2022-10-20T13:39:31;100786.94;;;13.38;89.51
74659;BME280;63186;51.204;6.536;2022-10-20T13:48:09;100783.22;;;13.25;89.25
74659;BME280;63186;51.204;6.536;2022-10-20T13:50:41;100780.44;;;13.16;89.91
74659;BME280;63186;51.204;6.536;2022-10-20T13:53:24;100782.56;;;13.19;90.08
74659;BME280;63186;51.204;6.536;2022-10-20T13:56:05;100769.06;;;13.18;89.60
74659;BME280;63186;51.204;6.536;2022-10-20T13:58:31;100764.19;;;13.23;89.70
74659;BME280;63186;51.204;6.536;2022-10-20T14:01:02;100763.22;;;13.28;89.45
74659;BME280;63186;51.204;6.536;2022-10-20T14:03:30;100759.13;;;13.34;89.39
74659;BME280;63186;51.204;6.536;2022-10-20T14:05:55;100758.44;;;13.46;89.16
74659;BME280;63186;51.204;6.536;2022-10-20T14:08:23;100744.44;;;13.51;87.74
74659;BME280;63186;51.204;6.536;2022-10-20T14:10:52;100761.47;;;13.62;88.22
74659;BME280;63186;51.204;6.536;2022-10-20T14:13:20;100768.44;;;13.68;87.49
74659;BME280;63186;51.204;6.536;2022-10-20T14:15:49;100767.16;;;13.65;88.17
74659;BME280;63186;51.204;6.536;2022-10-20T14:18:24;100772.22;;;13.63;87.96
74659;BME280;63186;51.204;6.536;2022-10-20T14:20:54;100757.44;;;13.59;87.83
74659;BME280;63186;51.204;6.536;2022-10-20T14:23:22;100757.78;;;13.57;88.28
74659;BME280;63186;51.204;6.536;2022-10-20T14:25:49;100766.06;;;13.57;87.97
74659;BME280;63186;51.204;6.536;2022-10-20T14:28:18;100760.38;;;13.54;88.18
74659;BME280;63186;51.204;6.536;2022-10-20T14:30:47;100775.16;;;13.58;88.37
74659;BME280;63186;51.204;6.536;2022-10-20T14:33:13;100771.25;;;13.59;88.25
74659;BME280;63186;51.204;6.536;2022-10-20T14:35:42;100764.59;;;13.60;88.03
74659;BME280;63186;51.204;6.536;2022-10-20T14:38:29;100757.44;;;13.59;88.08
74659;BME280;63186;51.204;6.536;2022-10-20T14:40:57;100763.31;;;13.57;88.25
74659;BME280;63186;51.204;6.536;2022-10-20T14:46:00;100759.06;;;13.60;88.16
74659;BME280;63186;51.204;6.536;2022-10-20T14:48:32;100759.53;;;13.62;88.40
74659;BME280;63186;51.204;6.536;2022-10-20T14:50:58;100746.84;;;13.61;88.29